Terminal Aerodrome Forecast
Issued by NWS Upton, NY

Home | Current Version | Previous Version | Text Only | Print | Product List | Glossary On
Versions: 1 2 3 4 5 6 7 8 9 10 11 12 13 14 15 16 17 18 19 20 21 22 23 24 25
258
FTUS41 KOKX 081127
TAFBDR
TAF
KBDR 081127Z 0812/0912 05015G25KT 5SM -SN BKN025 OVC050
     FM081300 03015G23KT 3SM -SN BR OVC015
     FM081400 02016G24KT 3/4SM -SN OVC007
     FM082000 02011G16KT 1SM -SN BR OVC015
     FM082300 03008KT 6SM BR VCSH OVC025
     FM090300 04007KT 6SM BR VCSH BKN025=

USA.gov is the U.S. government's official web portal to all federal, state and local government web resources and services.